createdAt,value
2019-01-22T00:00:35.248Z,0.00
2019-01-22T00:01:35.185Z,0.00
2019-01-22T00:02:35.124Z,0.00
2019-01-22T00:03:35.093Z,0.00
2019-01-22T00:04:34.999Z,0.00
2019-01-22T00:05:34.939Z,0.00
2019-01-22T00:06:34.875Z,0.00
2019-01-22T00:07:34.847Z,0.00
2019-01-22T00:08:34.752Z,0.00
2019-01-22T00:09:34.691Z,0.00
2019-01-22T00:10:34.661Z,0.00
2019-01-22T00:11:34.567Z,0.00
2019-01-22T00:12:34.502Z,0.00
2019-01-22T00:13:34.475Z,0.00
2019-01-22T00:14:34.378Z,0.00
2019-01-22T00:15:34.316Z,0.00
2019-01-22T00:16:34.255Z,0.00
2019-01-22T00:17:34.224Z,0.00
2019-01-22T00:18:34.131Z,0.00
2019-01-22T00:19:34.069Z,0.00
2019-01-22T00:20:34.008Z,0.00
2019-01-22T00:21:33.974Z,0.00
2019-01-22T00:22:33.878Z,0.00
2019-01-22T00:23:33.817Z,0.00
2019-01-22T00:24:33.755Z,0.00
2019-01-22T00:25:33.732Z,0.00
2019-01-22T00:26:33.632Z,0.00
2019-01-22T00:27:33.568Z,0.00
2019-01-22T00:28:33.507Z,0.00
2019-01-22T00:29:33.472Z,0.00
2019-01-22T00:30:33.414Z,0.00
2019-01-22T00:31:33.321Z,0.00
2019-01-22T00:32:33.262Z,0.00
2019-01-22T00:33:33.200Z,0.00
2019-01-22T00:34:33.135Z,0.00
2019-01-22T00:35:33.102Z,0.00
2019-01-22T00:36:33.010Z,0.00
2019-01-22T00:37:32.951Z,0.00
2019-01-22T00:38:32.882Z,0.00
2019-01-22T00:39:32.821Z,0.00
2019-01-22T00:40:32.791Z,0.00
2019-01-22T00:41:32.698Z,0.00
2019-01-22T00:42:32.676Z,0.00
2019-01-22T00:43:32.571Z,0.00
2019-01-22T00:44:32.512Z,0.00
2019-01-22T00:45:32.449Z,0.00
2019-01-22T00:46:32.385Z,0.00
2019-01-22T00:47:32.355Z,0.00
2019-01-22T00:48:32.265Z,0.00
2019-01-22T00:49:32.196Z,0.00
2019-01-22T00:50:32.138Z,0.00
2019-01-22T00:51:32.075Z,0.00
2019-01-22T00:52:32.047Z,0.00
2019-01-22T00:53:31.951Z,0.00
2019-01-22T00:54:31.888Z,0.00
2019-01-22T00:55:31.855Z,0.00
2019-01-22T00:56:31.762Z,0.00
2019-01-22T00:57:31.700Z,0.00
2019-01-22T00:58:31.674Z,0.00
2019-01-22T00:59:31.576Z,0.00
2019-01-22T01:00:31.546Z,0.00
2019-01-22T01:01:31.452Z,0.00
2019-01-22T01:02:31.422Z,0.00
2019-01-22T01:03:31.328Z,0.00
2019-01-22T01:04:31.267Z,0.00
2019-01-22T01:05:31.204Z,0.00
2019-01-22T01:06:31.141Z,0.00
2019-01-22T01:07:31.112Z,0.00
2019-01-22T01:08:31.049Z,0.00
2019-01-22T01:09:30.984Z,0.00
2019-01-22T01:10:30.925Z,0.00
2019-01-22T01:11:30.861Z,0.00
2019-01-22T01:12:30.766Z,0.00
2019-01-22T01:13:30.750Z,0.00
2019-01-22T01:14:30.642Z,0.00
2019-01-22T01:15:30.582Z,0.00
2019-01-22T01:16:30.520Z,0.00
2019-01-22T01:17:30.455Z,0.00
2019-01-22T01:18:30.426Z,0.00
2019-01-22T01:19:30.333Z,0.00
2019-01-22T01:20:30.270Z,0.00
2019-01-22T01:21:30.206Z,0.00
2019-01-22T01:22:30.145Z,0.00
2019-01-22T01:23:30.115Z,0.00
2019-01-22T01:24:30.044Z,0.00
2019-01-22T01:25:29.955Z,0.00
2019-01-22T01:26:29.894Z,0.00
2019-01-22T01:27:29.832Z,0.00
2019-01-22T01:28:29.768Z,0.00
2019-01-22T01:29:29.740Z,0.00
2019-01-22T01:30:29.677Z,0.00
2019-01-22T01:31:29.583Z,0.00
2019-01-22T01:32:29.522Z,0.00
2019-01-22T01:33:29.461Z,0.00
2019-01-22T01:34:29.429Z,0.00
2019-01-22T01:35:29.383Z,0.00
2019-01-22T01:36:29.273Z,0.00
2019-01-22T01:37:29.209Z,0.00
2019-01-22T01:38:29.146Z,0.00
2019-01-22T01:39:29.084Z,0.00
2019-01-22T01:40:29.055Z,0.00
2019-01-22T01:41:28.962Z,0.00
2019-01-22T01:42:28.899Z,0.00
2019-01-22T01:43:28.834Z,0.00
2019-01-22T01:44:28.775Z,0.00
2019-01-22T01:45:28.743Z,0.00
2019-01-22T01:46:28.652Z,0.00
2019-01-22T01:47:28.585Z,0.00
2019-01-22T01:48:28.523Z,0.00
2019-01-22T01:49:28.460Z,0.00
2019-01-22T01:50:28.433Z,0.00
2019-01-22T01:51:28.336Z,0.00
2019-01-22T01:52:28.276Z,0.00
2019-01-22T01:53:28.244Z,0.00
2019-01-22T01:54:28.150Z,0.00
2019-01-22T01:55:28.093Z,0.00
2019-01-22T01:56:28.026Z,0.00
2019-01-22T01:57:27.961Z,0.00
2019-01-22T01:58:27.929Z,0.00
2019-01-22T01:59:27.839Z,0.00
2019-01-22T02:00:27.779Z,0.00
2019-01-22T02:01:27.711Z,0.00
2019-01-22T02:02:27.681Z,0.00
2019-01-22T02:03:27.590Z,0.00
2019-01-22T02:04:27.527Z,0.00
2019-01-22T02:05:27.502Z,0.00
2019-01-22T02:06:27.400Z,0.00
2019-01-22T02:07:27.339Z,0.00
2019-01-22T02:08:27.277Z,0.00
2019-01-22T02:09:27.215Z,0.00
2019-01-22T02:10:27.180Z,0.00
2019-01-22T02:11:27.092Z,0.00
2019-01-22T02:12:27.030Z,0.00
2019-01-22T02:13:26.994Z,0.00
2019-01-22T02:14:26.904Z,0.00
2019-01-22T02:15:26.841Z,0.00
2019-01-22T02:16:26.804Z,0.00
2019-01-22T02:17:26.719Z,0.00
2019-01-22T02:18:26.651Z,0.00
2019-01-22T02:19:26.591Z,0.00
2019-01-22T02:20:26.532Z,0.00
2019-01-22T02:21:26.496Z,0.00
2019-01-22T02:22:26.444Z,0.00
2019-01-22T02:23:30.681Z,0.00
2019-01-22T02:24:26.279Z,0.00
2019-01-22T02:25:26.215Z,0.00
2019-01-22T02:26:26.152Z,0.00
2019-01-22T02:27:26.127Z,0.00
2019-01-22T02:28:26.029Z,0.00
2019-01-22T02:29:25.966Z,0.00
2019-01-22T02:30:25.901Z,0.00
2019-01-22T02:31:25.874Z,0.00
2019-01-22T02:32:27.641Z,0.00
2019-01-22T02:33:25.721Z,0.00
2019-01-22T02:34:25.655Z,0.00
2019-01-22T02:35:25.592Z,0.00
2019-01-22T02:36:25.564Z,0.00
2019-01-22T02:37:25.470Z,0.00
2019-01-22T02:38:25.403Z,0.00
2019-01-22T02:39:25.341Z,0.00
2019-01-22T02:40:25.280Z,0.00
2019-01-22T02:41:25.249Z,0.00
2019-01-22T02:42:25.156Z,0.00
2019-01-22T02:43:25.092Z,0.00
2019-01-22T02:44:25.029Z,0.00
2019-01-22T02:45:24.971Z,0.00
2019-01-22T02:46:24.943Z,0.00
2019-01-22T02:47:24.874Z,0.00
2019-01-22T02:48:24.781Z,0.00
2019-01-22T02:49:24.753Z,0.00
2019-01-22T02:50:24.686Z,0.00
2019-01-22T02:51:24.591Z,0.00
2019-01-22T02:52:24.533Z,0.00
2019-01-22T02:53:24.596Z,0.00
2019-01-22T02:54:24.404Z,0.00
2019-01-22T02:55:24.347Z,0.00
2019-01-22T02:56:24.281Z,0.00
2019-01-22T02:57:24.225Z,0.00
2019-01-22T02:58:24.194Z,0.00
2019-01-22T02:59:24.093Z,0.00
2019-01-22T03:00:24.031Z,0.00
2019-01-22T03:01:23.971Z,0.00
2019-01-22T03:02:23.938Z,0.00
2019-01-22T03:03:23.844Z,0.00
2019-01-22T03:04:23.815Z,0.00
2019-01-22T03:05:23.719Z,0.00
2019-01-22T03:06:23.692Z,0.00
2019-01-22T03:07:23.596Z,0.00
2019-01-22T03:08:30.104Z,0.00
2019-01-22T03:09:23.501Z,0.00
2019-01-22T03:10:23.409Z,0.00
2019-01-22T03:11:23.347Z,0.00
2019-01-22T03:12:23.285Z,0.00
2019-01-22T03:13:23.219Z,0.00
2019-01-22T03:14:23.190Z,0.00
2019-01-22T03:15:23.098Z,0.00
2019-01-22T03:16:23.034Z,0.00
2019-01-22T03:17:22.970Z,0.00
2019-01-22T03:18:22.949Z,0.00
2019-01-22T03:19:22.850Z,0.00
2019-01-22T03:20:22.783Z,0.00
2019-01-22T03:21:22.752Z,0.00
2019-01-22T03:22:22.693Z,0.00
2019-01-22T03:23:22.602Z,0.00
2019-01-22T03:24:22.536Z,0.00
2019-01-22T03:25:22.470Z,0.00
2019-01-22T03:26:22.413Z,0.00
2019-01-22T03:27:22.381Z,0.00
2019-01-22T03:28:22.287Z,0.00
2019-01-22T03:29:22.221Z,0.00
2019-01-22T03:30:22.223Z,0.00
2019-01-22T03:31:22.102Z,0.00
2019-01-22T03:32:22.038Z,0.00
2019-01-22T03:33:22.008Z,0.00
2019-01-22T03:34:21.918Z,0.00
2019-01-22T03:35:21.858Z,0.00
2019-01-22T03:36:21.819Z,0.00
2019-01-22T03:37:21.723Z,0.00
2019-01-22T03:38:21.664Z,0.00
2019-01-22T03:39:21.601Z,0.00
2019-01-22T03:40:21.536Z,0.00
2019-01-22T03:41:21.506Z,0.00
2019-01-22T03:42:21.410Z,0.00
2019-01-22T03:43:21.350Z,0.00
2019-01-22T03:44:21.318Z,0.00
2019-01-22T03:45:21.224Z,0.00
2019-01-22T03:46:21.171Z,0.00
2019-01-22T03:47:21.133Z,0.00
2019-01-22T03:48:21.044Z,0.00
2019-01-22T03:49:21.006Z,0.00
2019-01-22T03:50:20.912Z,0.00
2019-01-22T03:51:20.850Z,0.00
2019-01-22T03:52:20.785Z,0.00
2019-01-22T03:53:20.724Z,0.00
2019-01-22T03:54:20.695Z,0.00
2019-01-22T03:55:20.599Z,0.00
2019-01-22T03:56:20.539Z,0.00
2019-01-22T03:57:20.473Z,0.00
2019-01-22T03:58:20.447Z,0.00
2019-01-22T03:59:20.351Z,0.00
2019-01-22T04:00:20.287Z,0.00
2019-01-22T04:01:20.224Z,0.00
2019-01-22T04:02:20.211Z,0.00
2019-01-22T04:03:20.100Z,0.00
2019-01-22T04:04:20.039Z,0.00
2019-01-22T04:05:19.975Z,0.00
2019-01-22T04:06:19.912Z,0.00
2019-01-22T04:07:19.884Z,0.00
2019-01-22T04:08:19.786Z,0.00
2019-01-22T04:09:19.723Z,0.00
2019-01-22T04:10:19.663Z,0.00
2019-01-22T04:11:19.602Z,0.00
2019-01-22T04:12:19.568Z,0.00
2019-01-22T04:13:19.473Z,0.00
2019-01-22T04:14:19.410Z,0.00
2019-01-22T04:15:19.352Z,0.00
2019-01-22T04:16:19.319Z,0.00
2019-01-22T04:17:19.224Z,0.00
2019-01-22T04:18:19.162Z,0.00
2019-01-22T04:19:19.134Z,0.00
2019-01-22T04:20:19.038Z,0.00
2019-01-22T04:21:18.978Z,0.00
2019-01-22T04:22:18.944Z,0.00
2019-01-22T04:23:18.850Z,0.00
2019-01-22T04:24:18.789Z,0.00
2019-01-22T04:25:18.755Z,0.00
2019-01-22T04:26:18.662Z,0.00
2019-01-22T04:27:18.604Z,0.00
2019-01-22T04:28:18.542Z,0.00
2019-01-22T04:29:18.515Z,0.00
2019-01-22T04:30:18.451Z,0.00
2019-01-22T04:31:18.353Z,0.00
2019-01-22T04:32:18.289Z,0.00
2019-01-22T04:33:18.224Z,0.00
2019-01-22T04:34:18.163Z,0.00
2019-01-22T04:35:18.132Z,0.00
2019-01-22T04:36:18.037Z,0.00
2019-01-22T04:37:17.974Z,0.00
2019-01-22T04:38:17.914Z,0.00
2019-01-22T04:39:17.850Z,0.00
2019-01-22T04:40:17.819Z,0.00
2019-01-22T04:41:17.723Z,0.00
2019-01-22T04:42:17.661Z,0.00
2019-01-22T04:43:17.821Z,0.00
2019-01-22T04:44:17.538Z,0.00
2019-01-22T04:45:17.507Z,0.00
2019-01-22T04:46:17.418Z,0.00
2019-01-22T04:47:17.350Z,0.00
2019-01-22T04:48:17.286Z,0.00
2019-01-22T04:49:17.258Z,0.00
2019-01-22T04:50:17.162Z,0.00
2019-01-22T04:51:17.131Z,0.00
2019-01-22T04:52:17.039Z,0.00
2019-01-22T04:53:16.973Z,0.00
2019-01-22T04:54:16.917Z,0.00
2019-01-22T04:55:16.852Z,0.00
2019-01-22T04:56:16.818Z,0.00
2019-01-22T04:57:16.726Z,0.00
2019-01-22T04:58:16.667Z,0.00
2019-01-22T04:59:16.600Z,0.00
2019-01-22T05:00:16.567Z,0.00
2019-01-22T05:01:16.485Z,0.00
2019-01-22T05:02:16.415Z,0.00
2019-01-22T05:03:16.350Z,0.00
2019-01-22T05:04:16.288Z,0.00
2019-01-22T05:05:16.266Z,0.00
2019-01-22T05:06:16.161Z,0.00
2019-01-22T05:07:16.135Z,0.00
2019-01-22T05:08:16.040Z,0.00
2019-01-22T05:09:15.975Z,0.00
2019-01-22T05:10:15.913Z,0.00
2019-01-22T05:11:15.902Z,0.00
2019-01-22T05:12:15.789Z,0.00
2019-01-22T05:13:15.726Z,0.00
2019-01-22T05:14:15.666Z,0.00
2019-01-22T05:15:15.603Z,0.00
2019-01-22T05:16:15.572Z,0.00
2019-01-22T05:17:15.476Z,0.00
2019-01-22T05:18:15.415Z,0.00
2019-01-22T05:19:15.387Z,0.00
2019-01-22T05:20:15.289Z,0.00
2019-01-22T05:21:15.228Z,0.00
2019-01-22T05:22:15.166Z,0.00
2019-01-22T05:23:15.104Z,0.00
2019-01-22T05:24:18.103Z,0.00
2019-01-22T05:25:14.978Z,0.00
2019-01-22T05:26:14.915Z,0.00
2019-01-22T05:27:14.860Z,0.00
2019-01-22T05:28:14.791Z,0.00
2019-01-22T05:29:14.756Z,0.00
2019-01-22T05:30:14.691Z,0.00
2019-01-22T05:31:14.604Z,0.00
2019-01-22T05:32:14.540Z,0.00
2019-01-22T05:33:14.476Z,0.00
2019-01-22T05:34:14.455Z,0.00
2019-01-22T05:35:14.393Z,0.00
2019-01-22T05:36:14.298Z,0.00
2019-01-22T05:37:14.228Z,0.00
2019-01-22T05:38:14.173Z,0.00
2019-01-22T05:39:14.147Z,0.00
2019-01-22T05:40:14.042Z,0.00
2019-01-22T05:41:14.005Z,0.00
2019-01-22T05:42:13.921Z,0.00
2019-01-22T05:43:13.873Z,0.00
2019-01-22T05:44:13.791Z,0.00
2019-01-22T05:45:13.762Z,0.00
2019-01-22T05:46:13.671Z,0.00
2019-01-22T05:47:13.605Z,0.00
2019-01-22T05:48:13.679Z,0.00
2019-01-22T05:49:13.509Z,0.00
2019-01-22T05:50:13.423Z,0.00
2019-01-22T05:51:13.357Z,0.00
2019-01-22T05:52:13.291Z,0.00
2019-01-22T05:53:13.262Z,0.00
2019-01-22T05:54:13.168Z,0.00
2019-01-22T05:55:13.105Z,0.00
2019-01-22T05:56:13.041Z,0.00
2019-01-22T05:57:13.014Z,0.00
2019-01-22T05:58:12.923Z,0.00
2019-01-22T05:59:12.909Z,0.00
2019-01-22T06:00:12.805Z,0.00
2019-01-22T06:01:12.732Z,0.00
2019-01-22T06:02:12.668Z,0.00
2019-01-22T06:03:12.604Z,0.00
2019-01-22T06:04:12.571Z,0.00
2019-01-22T06:05:12.480Z,0.00
2019-01-22T06:06:12.418Z,0.00
2019-01-22T06:07:12.383Z,0.00
2019-01-22T06:08:12.293Z,0.00
2019-01-22T06:09:12.229Z,0.00
2019-01-22T06:10:12.198Z,0.00
2019-01-22T06:11:12.104Z,0.00
2019-01-22T06:12:12.041Z,0.00
2019-01-22T06:13:11.979Z,0.00
2019-01-22T06:14:11.917Z,0.00
2019-01-22T06:15:11.883Z,0.00
2019-01-22T06:16:11.791Z,0.00
2019-01-22T06:17:11.727Z,0.00
2019-01-22T06:18:11.666Z,0.00
2019-01-22T06:19:11.604Z,0.00
2019-01-22T06:20:11.581Z,0.00
2019-01-22T06:21:11.478Z,0.00
2019-01-22T06:22:11.418Z,0.00
2019-01-22T06:23:11.354Z,0.00
2019-01-22T06:24:11.296Z,0.00
2019-01-22T06:25:11.270Z,0.00
2019-01-22T06:26:11.202Z,0.00
2019-01-22T06:27:11.137Z,0.00
2019-01-22T06:28:11.073Z,0.00
2019-01-22T06:29:10.978Z,0.00
2019-01-22T06:30:10.917Z,0.00
2019-01-22T06:31:10.851Z,0.00
2019-01-22T06:32:10.789Z,0.00
2019-01-22T06:33:10.767Z,0.00
2019-01-22T06:34:10.666Z,0.00
2019-01-22T06:35:10.603Z,0.00
2019-01-22T06:36:10.541Z,4.00
2019-01-22T06:37:10.476Z,4.00
2019-01-22T06:38:10.448Z,0.00
2019-01-22T06:39:10.350Z,4.00
2019-01-22T06:40:10.323Z,4.00
2019-01-22T06:41:10.227Z,4.00
2019-01-22T06:42:10.165Z,4.00
2019-01-22T06:43:10.133Z,4.00
2019-01-22T06:44:10.038Z,8.00
2019-01-22T06:45:10.009Z,8.00
2019-01-22T06:46:09.944Z,8.00
2019-01-22T06:47:09.851Z,12.00
2019-01-22T06:48:09.832Z,12.00
2019-01-22T06:49:09.727Z,16.00
2019-01-22T06:50:09.693Z,20.00
2019-01-22T06:51:09.601Z,20.00
2019-01-22T06:52:09.580Z,24.00
2019-01-22T06:53:09.475Z,28.00
2019-01-22T06:54:09.457Z,32.00
2019-01-22T06:55:09.373Z,36.00
2019-01-22T06:56:09.286Z,40.00
2019-01-22T06:57:09.257Z,48.00
2019-01-22T06:58:09.159Z,52.00
2019-01-22T06:59:09.097Z,64.00
2019-01-22T07:00:09.034Z,68.00
2019-01-22T07:01:09.003Z,76.00
2019-01-22T07:02:08.907Z,84.00
2019-01-22T07:03:08.844Z,88.00
2019-01-22T07:04:08.784Z,100.00
2019-01-22T07:05:08.719Z,108.00
2019-01-22T07:06:08.697Z,124.00
2019-01-22T07:07:08.594Z,132.00
2019-01-22T07:08:08.532Z,144.00
2019-01-22T07:09:08.468Z,160.00
2019-01-22T07:10:08.407Z,164.00
2019-01-22T07:11:08.378Z,172.00
2019-01-22T07:12:08.279Z,188.00
2019-01-22T07:13:08.218Z,196.00
2019-01-22T07:14:08.186Z,200.00
2019-01-22T07:15:08.094Z,200.00
2019-01-22T07:16:08.029Z,212.00
2019-01-22T07:17:07.967Z,228.00
2019-01-22T07:18:07.904Z,236.00
2019-01-22T07:19:07.864Z,236.00
2019-01-22T07:20:07.785Z,240.00
2019-01-22T07:21:07.719Z,240.00
2019-01-22T07:22:07.653Z,236.00
2019-01-22T07:23:07.592Z,236.00
2019-01-22T07:24:07.559Z,224.00
2019-01-22T07:25:07.494Z,216.00
2019-01-22T07:26:07.401Z,196.00
2019-01-22T07:27:07.339Z,188.00
2019-01-22T07:28:07.279Z,172.00
2019-01-22T07:29:07.213Z,168.00
2019-01-22T07:30:07.183Z,168.00
2019-01-22T07:31:07.088Z,164.00
2019-01-22T07:32:07.030Z,164.00
2019-01-22T07:33:06.965Z,168.00
2019-01-22T07:34:06.929Z,180.00
2019-01-22T07:35:06.837Z,192.00
2019-01-22T07:36:06.772Z,192.00
2019-01-22T07:37:06.740Z,200.00
2019-01-22T07:38:06.650Z,208.00
2019-01-22T07:39:06.622Z,212.00
2019-01-22T07:40:06.521Z,224.00
2019-01-22T07:41:06.462Z,224.00
2019-01-22T07:42:06.400Z,228.00
2019-01-22T07:43:06.365Z,232.00
2019-01-22T07:44:06.274Z,236.00
2019-01-22T07:45:06.208Z,240.00
2019-01-22T07:46:06.179Z,252.00
2019-01-22T07:47:06.085Z,252.00
2019-01-22T07:48:06.023Z,256.00
2019-01-22T07:49:05.956Z,264.00
2019-01-22T07:50:05.926Z,276.00
2019-01-22T07:51:05.833Z,296.00
2019-01-22T07:52:05.775Z,300.00
2019-01-22T07:53:05.709Z,308.00
2019-01-22T07:54:05.677Z,324.00
2019-01-22T07:55:05.583Z,336.00
2019-01-22T07:56:05.520Z,340.00
2019-01-22T07:57:05.458Z,344.00
2019-01-22T07:58:05.394Z,344.00
2019-01-22T07:59:05.355Z,356.00
2019-01-22T08:00:05.272Z,360.00
2019-01-22T08:01:05.207Z,368.00
2019-01-22T08:02:05.144Z,372.00
2019-01-22T08:03:05.084Z,380.00
2019-01-22T08:04:05.063Z,388.00
2019-01-22T08:05:04.959Z,396.00
2019-01-22T08:06:04.897Z,400.00
2019-01-22T08:07:04.836Z,412.00
2019-01-22T08:08:04.773Z,428.00
2019-01-22T08:09:04.740Z,436.00
2019-01-22T08:10:04.695Z,456.00
2019-01-22T08:11:04.585Z,464.00
2019-01-22T08:12:04.522Z,472.00
2019-01-22T08:13:04.458Z,492.00
2019-01-22T08:14:04.399Z,504.00
2019-01-22T08:15:04.388Z,508.00
2019-01-22T08:16:04.272Z,512.00
2019-01-22T08:17:04.213Z,524.00
2019-01-22T08:18:04.148Z,536.00
2019-01-22T08:19:04.086Z,556.00
2019-01-22T08:20:04.055Z,560.00
2019-01-22T08:21:03.959Z,540.00
2019-01-22T08:22:03.899Z,548.00
2019-01-22T08:23:03.836Z,556.00
2019-01-22T08:24:03.804Z,568.00
2019-01-22T08:25:03.712Z,572.00
2019-01-22T08:26:03.648Z,596.00
2019-01-22T08:27:03.588Z,588.00
2019-01-22T08:28:03.556Z,604.00
2019-01-22T08:29:03.464Z,608.00
2019-01-22T08:30:03.398Z,620.00
2019-01-22T08:31:03.378Z,640.00
2019-01-22T08:32:03.275Z,660.00
2019-01-22T08:33:03.213Z,664.00
2019-01-22T08:34:03.149Z,656.00
2019-01-22T08:35:03.088Z,668.00
2019-01-22T08:36:03.060Z,688.00
2019-01-22T08:37:02.995Z,684.00
2019-01-22T08:38:02.904Z,692.00
2019-01-22T08:39:02.841Z,692.00
2019-01-22T08:40:02.782Z,728.00
2019-01-22T08:41:02.716Z,720.00
2019-01-22T08:42:02.684Z,696.00
2019-01-22T08:43:02.593Z,724.00
2019-01-22T08:44:02.529Z,736.00
2019-01-22T08:45:02.502Z,740.00
2019-01-22T08:46:02.436Z,756.00
2019-01-22T08:47:02.343Z,784.00
2019-01-22T08:48:02.282Z,776.00
2019-01-22T08:49:02.217Z,776.00
2019-01-22T08:50:02.163Z,804.00
2019-01-22T08:51:02.123Z,820.00
2019-01-22T08:52:02.033Z,828.00
2019-01-22T08:53:01.973Z,840.00
2019-01-22T08:54:01.941Z,880.00
2019-01-22T08:55:07.999Z,904.00
2019-01-22T08:56:01.782Z,916.00
2019-01-22T08:57:01.722Z,920.00
2019-01-22T08:58:01.824Z,928.00
2019-01-22T08:59:01.636Z,972.00
2019-01-22T09:00:01.538Z,1020.00
2019-01-22T09:01:01.476Z,1048.00
2019-01-22T09:02:01.447Z,1084.00
2019-01-22T09:03:01.351Z,1104.00
2019-01-22T09:04:01.317Z,1124.00
2019-01-22T09:05:01.227Z,1176.00
2019-01-22T09:06:01.163Z,1192.00
2019-01-22T09:07:01.135Z,1216.00
2019-01-22T09:08:01.039Z,1252.00
2019-01-22T09:09:00.977Z,1236.00
2019-01-22T09:10:00.914Z,1224.00
2019-01-22T09:11:00.886Z,1308.00
2019-01-22T09:12:00.796Z,1360.00
2019-01-22T09:13:00.728Z,1368.00
2019-01-22T09:14:00.670Z,1372.00
2019-01-22T09:15:00.606Z,1384.00
2019-01-22T09:16:00.576Z,1476.00
2019-01-22T09:17:00.485Z,1612.00
2019-01-22T09:18:00.425Z,1740.00
2019-01-22T09:19:00.358Z,1732.00
2019-01-22T09:20:00.359Z,1780.00
2019-01-22T09:21:00.234Z,1836.00
2019-01-22T09:22:00.172Z,1916.00
2019-01-22T09:23:00.112Z,1928.00
2019-01-22T09:24:00.047Z,2068.00
2019-01-22T09:25:00.017Z,2008.00
2019-01-22T09:25:59.924Z,2152.00
2019-01-22T09:26:59.862Z,2544.00
2019-01-22T09:27:59.800Z,2280.00
2019-01-22T09:28:59.770Z,2400.00
2019-01-22T09:29:59.676Z,2532.00
2019-01-22T09:30:59.646Z,2392.00
2019-01-22T09:31:59.552Z,2496.00
2019-01-22T09:32:59.490Z,2776.00
2019-01-22T09:33:59.427Z,2876.00
2019-01-22T09:34:59.400Z,2964.00
2019-01-22T09:35:59.337Z,3672.00
2019-01-22T09:36:59.243Z,2948.00
2019-01-22T09:37:59.182Z,3176.00
2019-01-22T09:38:59.119Z,3208.00
2019-01-22T09:39:59.059Z,2656.00
2019-01-22T09:40:59.040Z,2680.00
2019-01-22T09:41:58.934Z,3068.00
2019-01-22T09:42:58.878Z,3492.00
2019-01-22T09:43:58.812Z,3444.00
2019-01-22T09:44:58.750Z,3836.00
2019-01-22T09:45:58.721Z,3020.00
2019-01-22T09:46:58.625Z,3052.00
2019-01-22T09:47:58.565Z,3828.00
2019-01-22T09:48:58.534Z,5328.00
2019-01-22T09:49:58.443Z,11876.00
2019-01-22T09:50:58.379Z,36544.00
2019-01-22T09:51:58.318Z,12368.00
2019-01-22T09:52:58.290Z,3612.00
2019-01-22T09:53:58.194Z,3372.00
2019-01-22T09:54:58.166Z,3304.00
2019-01-22T09:56:00.847Z,3044.00
2019-01-22T09:56:58.012Z,2896.00
2019-01-22T09:57:57.949Z,2956.00
2019-01-22T09:58:57.914Z,2964.00
2019-01-22T09:59:57.830Z,3008.00
2019-01-22T10:00:57.768Z,2900.00
2019-01-22T10:01:57.710Z,3004.00
2019-01-22T10:02:57.679Z,3308.00
2019-01-22T10:04:03.409Z,3108.00
2019-01-22T10:04:57.521Z,2684.00
2019-01-22T10:05:57.492Z,2560.00
2019-01-22T10:06:57.402Z,2644.00
2019-01-22T10:07:57.339Z,2724.00
2019-01-22T10:08:57.312Z,2840.00
2019-01-22T10:09:57.252Z,2488.00
2019-01-22T10:11:01.672Z,2596.00
2019-01-22T10:11:58.323Z,2388.00
2019-01-22T10:12:57.064Z,2552.00
2019-01-22T10:13:56.971Z,2708.00
2019-01-22T10:14:56.912Z,2728.00
2019-01-22T10:15:56.850Z,2800.00
2019-01-22T10:16:56.909Z,2732.00
2019-01-22T10:17:56.726Z,3008.00
2019-01-22T10:18:56.684Z,2860.00
2019-01-22T10:19:56.604Z,3380.00
2019-01-22T10:20:56.541Z,2864.00
2019-01-22T10:21:56.528Z,2580.00
2019-01-22T10:22:56.419Z,2420.00
2019-01-22T10:23:56.355Z,2536.00
2019-01-22T10:24:56.294Z,2500.00
2019-01-22T10:25:56.231Z,2404.00
2019-01-22T10:26:56.201Z,2336.00
2019-01-22T10:27:56.109Z,2360.00
2019-01-22T10:28:56.044Z,2600.00
2019-01-22T10:29:56.015Z,2692.00
2019-01-22T10:30:55.923Z,2464.00
2019-01-22T10:31:55.863Z,2168.00
2019-01-22T10:32:55.798Z,2300.00
2019-01-22T10:33:55.739Z,2392.00
2019-01-22T10:34:55.713Z,2416.00
2019-01-22T10:35:55.614Z,2292.00
2019-01-22T10:36:55.551Z,2212.00
2019-01-22T10:37:55.492Z,2144.00
2019-01-22T10:38:55.465Z,2172.00
2019-01-22T10:39:55.369Z,2232.00
2019-01-22T10:40:55.304Z,2368.00
2019-01-22T10:41:55.244Z,2388.00
2019-01-22T10:42:55.185Z,2492.00
2019-01-22T10:43:55.154Z,2440.00
2019-01-22T10:44:55.060Z,2348.00
2019-01-22T10:45:54.996Z,2276.00
2019-01-22T10:46:54.936Z,2300.00
2019-01-22T10:47:54.874Z,2240.00
2019-01-22T10:48:54.844Z,2204.00
2019-01-22T10:49:54.749Z,2292.00
2019-01-22T10:50:54.695Z,2172.00
2019-01-22T10:51:54.628Z,2212.00
2019-01-22T10:52:54.564Z,2436.00
2019-01-22T10:53:54.535Z,2156.00
2019-01-22T10:54:54.442Z,2100.00
2019-01-22T10:55:54.378Z,1952.00
2019-01-22T10:56:54.316Z,2016.00
2019-01-22T10:57:54.255Z,2024.00
2019-01-22T10:58:54.226Z,1952.00
2019-01-22T10:59:54.132Z,2000.00
2019-01-22T11:00:54.069Z,1872.00
2019-01-22T11:01:54.007Z,1836.00
2019-01-22T11:02:53.948Z,1856.00
2019-01-22T11:03:53.917Z,1860.00
2019-01-22T11:04:53.824Z,1840.00
2019-01-22T11:05:53.792Z,1848.00
2019-01-22T11:06:53.701Z,1800.00
2019-01-22T11:07:53.668Z,1796.00
2019-01-22T11:08:53.573Z,1828.00
2019-01-22T11:09:53.544Z,1920.00
2019-01-22T11:10:53.453Z,1924.00
2019-01-22T11:11:53.421Z,1972.00
2019-01-22T11:12:53.328Z,1792.00
2019-01-22T11:13:53.267Z,1792.00
2019-01-22T11:14:53.203Z,1808.00
2019-01-22T11:15:53.144Z,1856.00
2019-01-22T11:16:53.115Z,1880.00
2019-01-22T11:17:53.018Z,1840.00
2019-01-22T11:18:52.956Z,1856.00
2019-01-22T11:19:52.901Z,1872.00
2019-01-22T11:20:52.830Z,1784.00
2019-01-22T11:21:52.857Z,1816.00
2019-01-22T11:22:52.708Z,1876.00
2019-01-22T11:23:52.646Z,1812.00
2019-01-22T11:24:52.894Z,1816.00
2019-01-22T11:25:52.524Z,1796.00
2019-01-22T11:26:52.508Z,1876.00
2019-01-22T11:27:52.398Z,1912.00
2019-01-22T11:28:52.336Z,1912.00
2019-01-22T11:29:52.278Z,1920.00
2019-01-22T11:30:52.215Z,1960.00
2019-01-22T11:31:52.192Z,2016.00
2019-01-22T11:32:52.088Z,2012.00
2019-01-22T11:33:52.028Z,2064.00
2019-01-22T11:34:51.965Z,2072.00
2019-01-22T11:35:51.903Z,2080.00
2019-01-22T11:36:51.870Z,2056.00
2019-01-22T11:37:51.777Z,2100.00
2019-01-22T11:38:51.750Z,2100.00
2019-01-22T11:39:51.655Z,2172.00
2019-01-22T11:40:51.593Z,2160.00
2019-01-22T11:41:51.530Z,2160.00
2019-01-22T11:42:51.468Z,2116.00
2019-01-22T11:43:51.441Z,2220.00
2019-01-22T11:44:51.345Z,2312.00
2019-01-22T11:45:51.286Z,2308.00
2019-01-22T11:46:51.228Z,2288.00
2019-01-22T11:47:51.162Z,2288.00
2019-01-22T11:48:51.138Z,2384.00
2019-01-22T11:49:51.041Z,2384.00
2019-01-22T11:50:51.009Z,2428.00
2019-01-22T11:51:50.913Z,2432.00
2019-01-22T11:52:50.853Z,2288.00
2019-01-22T11:53:50.793Z,2200.00
2019-01-22T11:54:50.762Z,2272.00
2019-01-22T11:55:50.840Z,2228.00
2019-01-22T11:56:50.603Z,2220.00
2019-01-22T11:57:50.545Z,2184.00
2019-01-22T11:58:50.567Z,2268.00
2019-01-22T11:59:50.423Z,2232.00
2019-01-22T12:00:50.389Z,2268.00
2019-01-22T12:01:50.296Z,2356.00
2019-01-22T12:02:50.273Z,2388.00
2019-01-22T12:03:50.176Z,2300.00
2019-01-22T12:04:50.117Z,2352.00
2019-01-22T12:05:53.283Z,2184.00
2019-01-22T12:06:49.990Z,2292.00
2019-01-22T12:07:49.964Z,2344.00
2019-01-22T12:08:49.865Z,2332.00
2019-01-22T12:09:49.806Z,2228.00
2019-01-22T12:10:49.770Z,2336.00
2019-01-22T12:11:49.680Z,2440.00
2019-01-22T12:12:49.616Z,2460.00
2019-01-22T12:13:53.957Z,2276.00
2019-01-22T12:14:49.533Z,2344.00
2019-01-22T12:15:49.435Z,2400.00
2019-01-22T12:16:49.368Z,2292.00
2019-01-22T12:17:49.307Z,2388.00
2019-01-22T12:18:49.248Z,2380.00
2019-01-22T12:19:49.217Z,2328.00
2019-01-22T12:20:49.120Z,2232.00
2019-01-22T12:21:49.092Z,2220.00
2019-01-22T12:22:49.001Z,2192.00
2019-01-22T12:23:48.939Z,1980.00
2019-01-22T12:24:48.876Z,2060.00
2019-01-22T12:25:48.813Z,2108.00
2019-01-22T12:26:48.782Z,2116.00
2019-01-22T12:27:48.691Z,2464.00
2019-01-22T12:28:48.630Z,2152.00
2019-01-22T12:29:48.567Z,2140.00
2019-01-22T12:30:48.531Z,2124.00
2019-01-22T12:31:48.441Z,2172.00
2019-01-22T12:32:48.382Z,2096.00
2019-01-22T12:33:48.321Z,2100.00
2019-01-22T12:34:48.295Z,2196.00
2019-01-22T12:35:48.199Z,2116.00
2019-01-22T12:36:48.135Z,1964.00
2019-01-22T12:37:48.073Z,1828.00
2019-01-22T12:38:48.014Z,1880.00
2019-01-22T12:39:47.984Z,1800.00
2019-01-22T12:40:47.891Z,1816.00
2019-01-22T12:41:47.826Z,1752.00
2019-01-22T12:42:47.805Z,1772.00
2019-01-22T12:43:47.703Z,1908.00
2019-01-22T12:44:47.640Z,1864.00
2019-01-22T12:45:47.581Z,1748.00
2019-01-22T12:46:47.519Z,1672.00